LFMH/EBU METAR and TAF weather

Enter ICAO airport designator
Station Type Date Time Source
LFMH METAR 2018/12/10 08:30 UTC NOAA

LFMH 100830Z AUTO VRB01KT 9999 FEW026 SCT037 BKN044 07/04 Q1028 TEMPO SHRA


Station Type Date Time Source
LFMH Decoded METAR 2018/12/10 08:30 UTC NOAA

St-Etienne Boutheon, France (LFMH) 45-32N 004-18E 402M
Dec 10, 2018 - 03:30 AM EST / 2018.12.10 0830 UTC
Wind: Variable at 1 MPH (1 KT):0
Visibility: greater than 7 mile(s):0
Sky conditions: mostly cloudy
Temperature: 44 F (7 C)
Dew Point: 39 F (4 C)
Relative Humidity: 81%
Pressure (altimeter): 30.36 in. Hg (1028 hPa)
ob: LFMH 100830Z AUTO VRB01KT 9999 FEW026 SCT037 BKN044 07/04 Q1028 TEMPO SHRA
cycle: 8

Station Type Date Time Source
LFMH TAF 2018/12/10 09:21 UTC NOAA

TAF LFMH 100800Z 1009/1109 36006KT 9999 SCT025 BKN035 OVC045 PROB40
TEMPO 1009/1015 SHRA
BECMG 1100/1103 OVC013


Example: see airport list